createdAt,value
2018-11-23T00:03:23.907Z,71.4
2018-11-23T00:08:20.352Z,71.7
2018-11-23T00:13:17.225Z,71.6
2018-11-23T00:18:13.823Z,71.9
2018-11-23T00:23:10.250Z,72.1
2018-11-23T00:28:07.117Z,72.3
2018-11-23T00:33:04.184Z,72.2
2018-11-23T00:38:00.898Z,72.5
2018-11-23T00:42:57.630Z,72.8
2018-11-23T00:47:54.219Z,72.9
2018-11-23T00:52:51.151Z,72.7
2018-11-23T00:57:48.185Z,72.9
2018-11-23T01:02:44.816Z,73.5
2018-11-23T01:07:41.672Z,72.7
2018-11-23T01:12:38.302Z,72.4
2018-11-23T01:17:35.085Z,72.4
2018-11-23T01:22:31.716Z,72.4
2018-11-23T01:27:28.379Z,72.7
2018-11-23T01:32:25.025Z,72.7
2018-11-23T01:37:21.947Z,72.2
2018-11-23T01:42:18.876Z,72
2018-11-23T01:47:15.604Z,72
2018-11-23T01:52:12.610Z,71.8
2018-11-23T01:57:09.245Z,72.1
2018-11-23T02:02:05.663Z,72.5
2018-11-23T02:07:02.515Z,72.6
2018-11-23T02:11:59.347Z,72.8
2018-11-23T02:16:56.094Z,73
2018-11-23T02:21:52.814Z,72.8
2018-11-23T02:26:49.075Z,72.6
2018-11-23T02:31:45.738Z,72.7
2018-11-23T02:36:42.510Z,72.5
2018-11-23T02:41:39.168Z,72.8
2018-11-23T02:46:35.714Z,72.4
2018-11-23T02:51:32.566Z,72.3
2018-11-23T02:56:29.299Z,72.5
2018-11-23T03:01:26.335Z,72.7
2018-11-23T03:06:23.151Z,72.7
2018-11-23T03:11:19.815Z,72.5
2018-11-23T03:16:16.379Z,72.6
2018-11-23T03:21:13.325Z,72.6
2018-11-23T03:26:10.119Z,72.5
2018-11-23T03:31:12.152Z,73.1
2018-11-23T03:36:03.527Z,72.7
2018-11-23T03:41:00.787Z,73.2
2018-11-23T03:45:57.365Z,73.2
2018-11-23T03:50:53.946Z,73.1
2018-11-23T03:55:50.659Z,73.3
2018-11-23T04:00:47.742Z,73.1
2018-11-23T04:05:44.429Z,72.9
2018-11-23T04:10:40.993Z,72.9
2018-11-23T04:15:37.725Z,72.8
2018-11-23T04:20:34.284Z,72.9
2018-11-23T04:25:31.184Z,72.8
2018-11-23T04:30:28.194Z,72.6
2018-11-23T04:35:24.909Z,72.7
2018-11-23T04:40:21.531Z,72.7
2018-11-23T04:45:18.323Z,72.5
2018-11-23T04:50:15.223Z,72.4
2018-11-23T04:55:11.948Z,72.6
2018-11-23T05:00:08.677Z,72.6
2018-11-23T05:05:05.590Z,72.5
2018-11-23T05:10:02.277Z,72.8
2018-11-23T05:14:59.112Z,72.7
2018-11-23T05:19:55.891Z,72.9
2018-11-23T05:24:52.323Z,72.7
2018-11-23T05:29:49.070Z,72.8
2018-11-23T05:34:45.148Z,72.4
2018-11-23T05:39:41.956Z,72.6
2018-11-23T05:44:38.602Z,72.9
2018-11-23T05:49:35.750Z,72.7
2018-11-23T05:54:32.190Z,72.8
2018-11-23T05:59:28.711Z,72.6
2018-11-23T06:04:25.503Z,73
2018-11-23T06:09:22.339Z,72.6
2018-11-23T06:14:18.861Z,72.3
2018-11-23T06:19:15.464Z,72.5
2018-11-23T06:24:12.333Z,72.7
2018-11-23T06:29:09.100Z,72.3
2018-11-23T06:34:05.672Z,72.3
2018-11-23T06:39:02.297Z,72.4
2018-11-23T06:43:59.192Z,72.7
2018-11-23T06:48:56.134Z,72.7
2018-11-23T06:53:52.375Z,72.5
2018-11-23T06:58:49.152Z,72.7
2018-11-23T07:03:45.735Z,73
2018-11-23T07:08:42.860Z,72.7
2018-11-23T07:13:39.603Z,72.4
2018-11-23T07:18:35.833Z,72.5
2018-11-23T07:23:32.401Z,72.3
2018-11-23T07:28:29.065Z,72.2
2018-11-23T07:33:25.797Z,72.1
2018-11-23T07:38:22.464Z,72
2018-11-23T07:43:19.178Z,71.9
2018-11-23T07:48:15.966Z,71.7
2018-11-23T07:53:12.837Z,71.6
2018-11-23T07:58:09.696Z,71.3
2018-11-23T08:03:06.412Z,71.4
2018-11-23T08:08:03.169Z,71.4
2018-11-23T08:13:00.152Z,71.4
2018-11-23T08:17:56.937Z,71.2
2018-11-23T08:22:53.759Z,71.1
2018-11-23T08:27:50.661Z,71.3
2018-11-23T08:32:47.368Z,70.9
2018-11-23T08:37:44.287Z,70.8
2018-11-23T08:42:41.243Z,71.2
2018-11-23T08:47:38.331Z,71.7
2018-11-23T08:52:35.196Z,71.1
2018-11-23T08:57:32.161Z,70.7
2018-11-23T09:02:28.779Z,70.9
2018-11-23T09:07:25.593Z,70.8
2018-11-23T09:12:22.263Z,70.4
2018-11-23T09:17:18.932Z,70.5
2018-11-23T09:22:15.630Z,70.5
2018-11-23T09:27:12.168Z,69.9
2018-11-23T09:32:08.332Z,70.2
2018-11-23T09:37:04.908Z,69.9
2018-11-23T09:42:01.443Z,69.6
2018-11-23T09:46:58.123Z,69.3
2018-11-23T09:51:54.783Z,69.1
2018-11-23T09:56:51.533Z,69.1
2018-11-23T10:01:48.579Z,69.1
2018-11-23T10:06:45.316Z,69
2018-11-23T10:11:42.156Z,68.9
2018-11-23T10:16:38.902Z,68.6
2018-11-23T10:21:35.862Z,68.5
2018-11-23T10:26:32.770Z,68.6
2018-11-23T10:31:29.175Z,68.6
2018-11-23T10:36:25.368Z,68.4
2018-11-23T10:41:22.105Z,68.3
2018-11-23T10:46:18.658Z,68.2
2018-11-23T10:51:15.404Z,67.3
2018-11-23T10:56:12.463Z,67.4
2018-11-23T11:01:09.309Z,67.3
2018-11-23T11:06:05.152Z,67.2
2018-11-23T11:11:01.934Z,67.3
2018-11-23T11:15:58.665Z,66.8
2018-11-23T11:20:55.552Z,67.1
2018-11-23T11:25:52.402Z,67.5
2018-11-23T11:30:49.231Z,67.5
2018-11-23T11:35:45.928Z,67.4
2018-11-23T11:40:42.461Z,67.7
2018-11-23T11:45:39.046Z,67.2
2018-11-23T11:50:35.722Z,67.3
2018-11-23T11:55:32.432Z,67.1
2018-11-23T12:00:28.768Z,67.4
2018-11-23T12:05:25.377Z,67.1
2018-11-23T12:10:22.329Z,67.4
2018-11-23T12:15:18.771Z,68.5
2018-11-23T12:20:15.151Z,67.9
2018-11-23T12:25:12.064Z,67.8
2018-11-23T12:30:08.629Z,67.4
2018-11-23T12:35:05.535Z,68
2018-11-23T12:40:02.501Z,67.7
2018-11-23T12:44:59.100Z,67.7
2018-11-23T12:49:55.868Z,67.7
2018-11-23T12:54:52.832Z,67.6
2018-11-23T12:59:49.709Z,67.5
2018-11-23T13:04:46.473Z,67.8
2018-11-23T13:09:43.548Z,67.9
2018-11-23T13:14:40.436Z,67.8
2018-11-23T13:19:36.775Z,67.9
2018-11-23T13:24:33.927Z,66.9
2018-11-23T13:29:30.546Z,67
2018-11-23T13:34:27.306Z,67.3
2018-11-23T13:39:23.870Z,66.8
2018-11-23T13:44:20.514Z,66.9
2018-11-23T13:49:17.272Z,66.9
2018-11-23T13:54:13.718Z,66.5
2018-11-23T13:59:10.647Z,66.8
2018-11-23T14:04:07.472Z,66.9
2018-11-23T14:09:04.231Z,66.9
2018-11-23T14:14:00.997Z,67
2018-11-23T14:18:57.842Z,67.2
2018-11-23T14:23:54.794Z,67.3
2018-11-23T14:28:51.693Z,66.9
2018-11-23T14:33:48.494Z,67.1
2018-11-23T14:38:45.489Z,67.5
2018-11-23T14:43:42.295Z,67.6
2018-11-23T14:48:38.901Z,67.5
2018-11-23T14:53:36.244Z,67.4
2018-11-23T14:58:32.996Z,67.3
2018-11-23T15:03:27.702Z,67.1
2018-11-23T15:08:24.926Z,67.3
2018-11-23T15:13:21.366Z,67.3
2018-11-23T15:18:18.106Z,67.3
2018-11-23T15:23:15.372Z,67.4
2018-11-23T15:28:12.082Z,67.5
2018-11-23T15:33:08.996Z,67.5
2018-11-23T15:38:09.875Z,67.1
2018-11-23T15:43:02.670Z,66.2
2018-11-23T15:47:59.481Z,65.8
2018-11-23T15:52:56.293Z,65.6
2018-11-23T15:57:53.092Z,65.2
2018-11-23T16:02:49.505Z,65.6
2018-11-23T16:07:46.149Z,65.9
2018-11-23T16:12:42.872Z,65.8
2018-11-23T16:17:39.611Z,66.1
2018-11-23T16:22:36.089Z,66.3
2018-11-23T16:27:32.592Z,66.3
2018-11-23T16:32:29.212Z,66.3
2018-11-23T16:37:25.850Z,66.3
2018-11-23T16:42:22.682Z,66.2
2018-11-23T16:47:20.360Z,66.1
2018-11-23T16:52:17.090Z,66.3
2018-11-23T16:57:13.814Z,66.4
2018-11-23T17:02:11.040Z,66.5
2018-11-23T17:07:12.666Z,66.4
2018-11-23T17:12:04.381Z,66.3
2018-11-23T17:17:00.971Z,66.7
2018-11-23T17:21:57.864Z,66.7
2018-11-23T17:26:54.660Z,66.8
2018-11-23T17:31:51.410Z,66.8
2018-11-23T17:36:48.096Z,66.8
2018-11-23T17:41:44.850Z,67
2018-11-23T17:46:41.664Z,67.2
2018-11-23T17:51:38.235Z,67
2018-11-23T17:56:35.882Z,66.9
2018-11-23T18:01:32.445Z,67.1
2018-11-23T18:06:29.003Z,66.9
2018-11-23T18:11:25.691Z,66.8
2018-11-23T18:16:22.700Z,66.9
2018-11-23T18:21:19.116Z,66.9
2018-11-23T18:26:15.916Z,66.9
2018-11-23T18:31:12.787Z,67
2018-11-23T18:36:09.596Z,67.2
2018-11-23T18:41:06.579Z,67.4
2018-11-23T18:46:03.349Z,67.5
2018-11-23T18:51:00.635Z,67.4
2018-11-23T18:55:58.192Z,67.6
2018-11-23T19:00:55.146Z,67.5
2018-11-23T19:05:52.332Z,68
2018-11-23T19:10:49.115Z,68.2
2018-11-23T19:15:46.080Z,67.9
2018-11-23T19:20:42.980Z,68
2018-11-23T19:25:39.904Z,68.2
2018-11-23T19:30:36.679Z,68.3
2018-11-23T19:35:33.650Z,68
2018-11-23T19:40:29.800Z,67.8
2018-11-23T19:45:26.488Z,68
2018-11-23T19:50:23.484Z,68.1
2018-11-23T19:55:20.255Z,68.2
2018-11-23T20:00:17.552Z,68.1
2018-11-23T20:05:14.112Z,68.3
2018-11-23T20:10:10.938Z,68.1
2018-11-23T20:15:07.773Z,68.2
2018-11-23T20:20:04.556Z,68.5
2018-11-23T20:25:01.418Z,68.7
2018-11-23T20:29:58.213Z,69.3
2018-11-23T20:34:54.947Z,69.1
2018-11-23T20:39:51.802Z,68.9
2018-11-23T20:44:48.800Z,68.7
2018-11-23T20:49:46.067Z,68.7
2018-11-23T20:54:42.946Z,68.6
2018-11-23T20:59:40.126Z,68.9
2018-11-23T21:04:36.885Z,68.8
2018-11-23T21:09:33.785Z,68.7
2018-11-23T21:14:30.607Z,68.6
2018-11-23T21:19:27.496Z,68.3
2018-11-23T21:24:24.281Z,68.1
2018-11-23T21:29:21.087Z,67.6
2018-11-23T21:34:17.921Z,67.7
2018-11-23T21:39:14.422Z,67.4
2018-11-23T21:44:11.675Z,67
2018-11-23T21:49:08.643Z,66.9
2018-11-23T21:54:05.546Z,66.4
2018-11-23T21:59:03.180Z,66.6
2018-11-23T22:04:06.266Z,67
2018-11-23T22:08:56.929Z,66.7
2018-11-23T22:13:53.644Z,66.9
2018-11-23T22:18:50.354Z,66.6
2018-11-23T22:23:47.226Z,66.6
2018-11-23T22:28:44.117Z,66.6
2018-11-23T22:33:40.936Z,66.5
2018-11-23T22:38:37.521Z,66.8
2018-11-23T22:43:34.389Z,67
2018-11-23T22:48:31.389Z,66.8
2018-11-23T22:53:28.360Z,66.7
2018-11-23T22:58:25.104Z,67
2018-11-23T23:03:22.329Z,67.3
2018-11-23T23:08:20.230Z,67.3
2018-11-23T23:13:19.652Z,67
2018-11-23T23:18:19.215Z,67.1
2018-11-23T23:23:16.960Z,66.9
2018-11-23T23:28:16.215Z,66.7
2018-11-23T23:33:15.437Z,66.4
2018-11-23T23:38:14.863Z,66.4
2018-11-23T23:43:13.635Z,66.2
2018-11-23T23:48:12.484Z,66.2
2018-11-23T23:53:12.073Z,66.1
2018-11-23T23:58:11.466Z,66.2
